Terminal Aerodrome Forecast
Issued by NWS Missoula, MT

Home | Current Version | Previous Version | Text Only | Print | Product List | Glossary On
Versions: 1 2 3 4 5 6 7 8 9 10 11 12 13 14 15
124
FTUS45 KMSO 032320
TAFBTM
TAF
KBTM 032320Z 0400/0424 28008KT P6SM BKN060
     FM041500 23005KT P6SM -SN SCT035 OVC050
     FM041900 26011G21KT 4SM -SN SCT020 OVC030=

USA.gov is the U.S. government's official web portal to all federal, state and local government web resources and services.